Homewood, California
Current Conditions -  °F | °C
As of 5:53 PM on Saturday 22 Nov 2014 (Local Time) from KTVL Reporting Station
Broken Clouds Broken Clouds  
Wind Chill: 40°   Ceiling: 4900
Heat Index: 40°   Visibility: 10mi
Dew Point: 29°   Wind: 3mph
Humidity: 65%   Direction: NA
Pressure: 30.14"   Gusts: NA
Location:  39.09°N, 120.16°W
Report Text: KTVL 230153Z AUTO VRB03KT 10SM SCT030 SCT042 BKN049 04/M02 A3014 RMK AO2 RAE33 SLP182 P0000 T00441017
Loading
Personal Weather Stations






























Interactive Weather Map New forecast layout! Learn more

10-Day Weather Forecast

Advertisements
Track Severe Weather on mobile